createdAt,value
2018-06-20T00:01:05.526Z,3.77
2018-06-20T00:03:33.198Z,3.57
2018-06-20T00:06:00.933Z,3.43
2018-06-20T00:08:28.624Z,3.27
2018-06-20T00:10:56.362Z,3.23
2018-06-20T00:13:24.072Z,3.20
2018-06-20T00:15:51.747Z,3.33
2018-06-20T00:18:19.460Z,3.57
2018-06-20T00:20:47.186Z,3.60
2018-06-20T00:23:14.916Z,3.80
2018-06-20T00:25:42.575Z,2.90
2018-06-20T00:28:10.264Z,3.23
2018-06-20T00:30:37.910Z,3.50
2018-06-20T00:33:05.597Z,3.27
2018-06-20T00:35:33.308Z,3.13
2018-06-20T00:38:01.006Z,2.90
2018-06-20T00:40:28.770Z,3.20
2018-06-20T00:42:56.486Z,2.70
2018-06-20T00:45:24.240Z,2.60
2018-06-20T00:47:51.949Z,3.00
2018-06-20T00:50:19.807Z,2.80
2018-06-20T00:52:47.552Z,2.70
2018-06-20T00:55:19.304Z,2.77
2018-06-20T00:57:46.904Z,2.70
2018-06-20T01:00:14.607Z,3.13
2018-06-20T01:02:42.309Z,2.93
2018-06-20T01:05:10.002Z,2.53
2018-06-20T01:07:37.680Z,2.70
2018-06-20T01:10:05.670Z,2.50
2018-06-20T01:12:33.389Z,2.53
2018-06-20T01:15:01.120Z,2.43
2018-06-20T01:17:28.842Z,2.20
2018-06-20T01:19:56.642Z,2.70
2018-06-20T01:22:24.357Z,2.30
2018-06-20T01:24:52.017Z,2.30
2018-06-20T01:27:19.724Z,2.10
2018-06-20T01:29:47.400Z,2.40
2018-06-20T01:32:14.962Z,2.30
2018-06-20T01:34:42.732Z,2.50
2018-06-20T01:37:10.388Z,2.20
2018-06-20T01:39:41.824Z,2.23
2018-06-20T01:42:09.544Z,2.33
2018-06-20T01:44:37.230Z,2.40
2018-06-20T01:47:04.951Z,2.43
2018-06-20T01:49:32.660Z,2.00
2018-06-20T01:52:00.339Z,2.10
2018-06-20T01:54:28.087Z,2.17
2018-06-20T01:56:55.795Z,1.93
2018-06-20T01:59:23.489Z,2.47
2018-06-20T02:01:51.181Z,2.10
2018-06-20T02:04:18.908Z,2.20
2018-06-20T02:06:46.614Z,1.90
2018-06-20T02:09:14.333Z,2.03
2018-06-20T02:11:42.034Z,2.23
2018-06-20T02:14:09.754Z,1.90
2018-06-20T02:16:37.428Z,2.03
2018-06-20T02:19:05.191Z,1.90
2018-06-20T02:21:32.863Z,2.00
2018-06-20T02:24:00.880Z,1.73
2018-06-20T02:26:28.572Z,1.80
2018-06-20T02:28:56.251Z,1.70
2018-06-20T02:31:23.915Z,1.70
2018-06-20T02:33:51.571Z,1.70
2018-06-20T02:36:24.776Z,2.00
2018-06-20T02:38:52.515Z,1.47
2018-06-20T02:41:20.186Z,2.03
2018-06-20T02:43:47.876Z,1.70
2018-06-20T02:46:15.601Z,1.70
2018-06-20T02:48:43.282Z,2.10
2018-06-20T02:51:10.953Z,1.67
2018-06-20T02:53:38.617Z,2.60
2018-06-20T02:56:06.313Z,1.90
2018-06-20T02:58:34.083Z,2.00
2018-06-20T03:01:01.795Z,1.70
2018-06-20T03:03:29.478Z,1.67
2018-06-20T03:05:57.159Z,2.00
2018-06-20T03:08:24.867Z,2.00
2018-06-20T03:10:52.506Z,2.13
2018-06-20T03:13:20.228Z,2.23
2018-06-20T03:15:47.955Z,2.47
2018-06-20T03:18:15.670Z,2.10
2018-06-20T03:20:43.357Z,2.60
2018-06-20T03:23:11.034Z,2.60
2018-06-20T03:25:38.825Z,2.67
2018-06-20T03:28:06.550Z,3.17
2018-06-20T03:30:34.341Z,3.00
2018-06-20T03:33:02.063Z,3.43
2018-06-20T03:35:29.723Z,3.10
2018-06-20T03:37:57.429Z,2.93
2018-06-20T03:40:25.163Z,3.10
2018-06-20T03:42:52.848Z,3.13
2018-06-20T03:45:20.587Z,3.00
2018-06-20T03:47:48.257Z,3.00
2018-06-20T03:50:15.952Z,2.73
2018-06-20T03:52:43.626Z,3.10
2018-06-20T03:55:11.331Z,2.93
2018-06-20T03:57:39.987Z,2.80
2018-06-20T04:00:07.696Z,2.90
2018-06-20T04:02:35.415Z,3.17
2018-06-20T04:05:03.142Z,2.67
2018-06-20T04:07:30.830Z,3.00
2018-06-20T04:09:58.507Z,2.80
2018-06-20T04:12:26.135Z,3.03
2018-06-20T04:14:53.831Z,3.10
2018-06-20T04:17:21.525Z,2.70
2018-06-20T04:19:49.205Z,2.80
2018-06-20T04:22:16.763Z,2.60
2018-06-20T04:24:44.455Z,2.10
2018-06-20T04:27:12.173Z,2.17
2018-06-20T04:29:43.135Z,2.30
2018-06-20T04:32:10.841Z,2.60
2018-06-20T04:34:38.590Z,2.50
2018-06-20T04:37:06.237Z,2.43
2018-06-20T04:39:33.889Z,2.67
2018-06-20T04:42:01.596Z,2.60
2018-06-20T04:44:29.292Z,2.40
2018-06-20T04:46:57.094Z,2.20
2018-06-20T04:49:26.900Z,2.10
2018-06-20T04:51:54.585Z,2.23
2018-06-20T04:54:22.255Z,2.10
2018-06-20T04:56:49.922Z,2.37
2018-06-20T04:59:17.635Z,2.27
2018-06-20T05:01:45.295Z,2.30
2018-06-20T05:04:12.951Z,2.30
2018-06-20T05:06:40.597Z,2.10
2018-06-20T05:09:13.947Z,2.03
2018-06-20T05:11:41.598Z,2.10
2018-06-20T05:14:09.323Z,2.40
2018-06-20T05:16:37.031Z,2.20
2018-06-20T05:19:04.741Z,2.30
2018-06-20T05:21:32.391Z,2.30
2018-06-20T05:24:00.050Z,2.53
2018-06-20T05:26:27.704Z,2.67
2018-06-20T05:28:55.331Z,1.93
2018-06-20T05:31:22.997Z,2.47
2018-06-20T05:33:50.631Z,2.43
2018-06-20T05:36:18.274Z,2.50
2018-06-20T05:38:45.901Z,2.50
2018-06-20T05:41:13.551Z,2.73
2018-06-20T05:43:41.205Z,2.33
2018-06-20T05:46:08.850Z,2.17
2018-06-20T05:48:36.562Z,2.53
2018-06-20T05:51:04.213Z,2.37
2018-06-20T05:53:31.831Z,2.13
2018-06-20T05:55:59.523Z,2.20
2018-06-20T05:58:27.162Z,2.30
2018-06-20T06:00:55.079Z,2.47
2018-06-20T06:03:22.714Z,2.30
2018-06-20T06:06:02.249Z,2.20
2018-06-20T06:08:29.912Z,2.10
2018-06-20T06:10:57.567Z,2.17
2018-06-20T06:13:25.205Z,2.17
2018-06-20T06:15:52.855Z,1.90
2018-06-20T06:18:20.503Z,2.13
2018-06-20T06:20:48.149Z,2.40
2018-06-20T06:23:15.797Z,2.10
2018-06-20T06:25:43.467Z,2.00
2018-06-20T06:28:11.109Z,2.10
2018-06-20T06:30:38.779Z,2.50
2018-06-20T06:33:06.412Z,2.17
2018-06-20T06:35:34.090Z,2.17
2018-06-20T06:38:01.737Z,2.10
2018-06-20T06:40:29.371Z,2.70
2018-06-20T06:42:57.062Z,2.80
2018-06-20T06:45:24.715Z,2.50
2018-06-20T06:47:52.367Z,2.53
2018-06-20T06:50:20.067Z,2.50
2018-06-20T06:52:47.761Z,2.70
2018-06-20T06:55:15.411Z,2.20
2018-06-20T06:57:43.078Z,1.80
2018-06-20T07:00:10.734Z,1.90
2018-06-20T07:02:38.404Z,1.80
2018-06-20T07:05:06.092Z,1.80
2018-06-20T07:07:33.813Z,2.23
2018-06-20T07:10:01.508Z,2.00
2018-06-20T07:12:29.180Z,1.87
2018-06-20T07:14:56.843Z,2.10
2018-06-20T07:17:24.493Z,2.37
2018-06-20T07:19:52.160Z,1.93
2018-06-20T07:22:19.817Z,2.17
2018-06-20T07:24:47.558Z,2.23
2018-06-20T07:27:15.226Z,2.37
2018-06-20T07:29:42.876Z,2.53
2018-06-20T07:32:10.523Z,2.30
2018-06-20T07:34:38.207Z,2.80
2018-06-20T07:37:05.869Z,4.27
2018-06-20T07:39:33.543Z,3.40
2018-06-20T07:42:01.181Z,2.90
2018-06-20T07:44:28.838Z,3.20
2018-06-20T07:46:56.479Z,2.87
2018-06-20T07:49:24.153Z,3.77
2018-06-20T07:51:51.807Z,3.60
2018-06-20T07:54:19.494Z,3.90
2018-06-20T07:56:47.188Z,3.90
2018-06-20T07:59:15.877Z,3.20
2018-06-20T08:01:54.589Z,2.93
2018-06-20T08:04:27.763Z,2.23
2018-06-20T08:07:00.983Z,2.40
2018-06-20T08:09:35.272Z,2.30
2018-06-20T08:12:08.497Z,2.40
2018-06-20T08:14:41.849Z,2.10
2018-06-20T08:19:17.148Z,2.40
2018-06-20T08:21:44.802Z,2.30
2018-06-20T08:24:13.217Z,2.30
2018-06-20T08:26:40.894Z,2.63
2018-06-20T08:29:08.558Z,2.73
2018-06-20T08:31:36.395Z,2.90
2018-06-20T08:34:04.040Z,2.60
2018-06-20T08:36:31.684Z,2.50
2018-06-20T08:38:59.446Z,2.50
2018-06-20T08:41:27.118Z,2.33
2018-06-20T08:43:54.778Z,2.40
2018-06-20T08:46:22.433Z,2.50
2018-06-20T08:48:50.085Z,4.10
2018-06-20T08:51:17.739Z,2.73
2018-06-20T08:53:45.385Z,3.20
2018-06-20T08:56:13.064Z,2.90
2018-06-20T08:58:40.709Z,2.80
2018-06-20T09:01:08.427Z,2.77
2018-06-20T09:03:36.076Z,1.90
2018-06-20T09:06:09.399Z,2.20
2018-06-20T09:08:42.609Z,2.10
2018-06-20T09:11:15.809Z,1.80
2018-06-20T09:13:48.859Z,2.03
2018-06-20T09:16:22.081Z,2.10
2018-06-20T09:18:55.296Z,2.07
2018-06-20T09:21:22.958Z,2.23
2018-06-20T09:23:50.605Z,2.10
2018-06-20T09:26:18.272Z,2.47
2018-06-20T09:28:45.901Z,1.80
2018-06-20T09:31:13.625Z,2.00
2018-06-20T09:33:41.335Z,1.70
2018-06-20T09:36:09.707Z,2.00
2018-06-20T09:38:37.525Z,2.00
2018-06-20T09:41:05.344Z,2.20
2018-06-20T09:43:33.003Z,1.90
2018-06-20T09:46:00.707Z,2.37
2018-06-20T09:48:28.395Z,2.00
2018-06-20T09:50:57.461Z,2.03
2018-06-20T09:53:25.171Z,2.00
2018-06-20T09:55:52.847Z,2.43
2018-06-20T09:58:22.693Z,2.40
2018-06-20T10:00:56.119Z,2.13
2018-06-20T10:03:29.237Z,2.10
2018-06-20T10:06:02.633Z,2.30
2018-06-20T10:08:35.759Z,2.80
2018-06-20T10:11:09.113Z,2.43
2018-06-20T10:13:42.354Z,2.17
2018-06-20T10:16:10.010Z,2.13
2018-06-20T10:18:37.653Z,2.20
2018-06-20T10:21:05.439Z,2.60
2018-06-20T10:23:33.055Z,2.60
2018-06-20T10:26:00.733Z,2.53
2018-06-20T10:28:28.403Z,2.37
2018-06-20T10:30:56.047Z,2.20
2018-06-20T10:33:23.685Z,2.27
2018-06-20T10:35:51.334Z,2.27
2018-06-20T10:38:19.037Z,2.43
2018-06-20T10:40:46.705Z,2.27
2018-06-20T10:43:14.369Z,2.10
2018-06-20T10:45:47.717Z,2.27
2018-06-20T10:48:16.065Z,2.40
2018-06-20T10:50:43.911Z,2.70
2018-06-20T10:53:11.619Z,2.20
2018-06-20T10:55:39.995Z,2.40
2018-06-20T10:58:13.418Z,2.10
2018-06-20T11:00:47.064Z,2.60
2018-06-20T11:03:20.355Z,3.00
2018-06-20T11:05:53.583Z,2.80
2018-06-20T11:08:26.944Z,3.10
2018-06-20T11:11:00.136Z,2.90
2018-06-20T11:13:27.811Z,2.90
2018-06-20T11:15:55.491Z,3.40
2018-06-20T11:18:23.171Z,3.00
2018-06-20T11:20:55.856Z,2.17
2018-06-20T11:23:23.601Z,2.43
2018-06-20T11:25:51.271Z,2.30
2018-06-20T11:28:18.950Z,2.23
2018-06-20T11:30:46.964Z,2.47
2018-06-20T11:33:15.095Z,2.27
2018-06-20T11:35:43.094Z,2.00
2018-06-20T11:38:10.759Z,2.03
2018-06-20T11:40:38.563Z,2.30
2018-06-20T11:43:06.463Z,2.23
2018-06-20T11:45:39.817Z,2.53
2018-06-20T11:48:07.824Z,3.23
2018-06-20T11:50:35.533Z,2.93
2018-06-20T11:53:07.456Z,2.90
2018-06-20T11:55:39.360Z,3.30
2018-06-20T11:58:13.024Z,2.50
2018-06-20T12:00:46.295Z,2.50
2018-06-20T12:03:19.521Z,2.20
2018-06-20T12:05:53.093Z,2.30
2018-06-20T12:08:30.177Z,2.50
2018-06-20T12:11:03.314Z,2.60
2018-06-20T12:13:36.605Z,2.50
2018-06-20T12:16:09.727Z,3.07
2018-06-20T12:18:42.946Z,2.70
2018-06-20T12:21:16.269Z,3.00
2018-06-20T12:23:49.333Z,2.70
2018-06-20T12:26:22.503Z,3.30
2018-06-20T12:28:55.679Z,2.93
2018-06-20T12:31:28.937Z,2.50
2018-06-20T12:34:02.119Z,2.47
2018-06-20T12:36:35.427Z,2.70
2018-06-20T12:39:05.173Z,2.40
2018-06-20T12:41:38.341Z,2.67
2018-06-20T12:44:11.485Z,2.37
2018-06-20T12:46:48.884Z,2.60
2018-06-20T12:49:18.606Z,3.10
2018-06-20T12:51:47.156Z,2.63
2018-06-20T12:54:14.787Z,3.80
2018-06-20T12:56:42.498Z,3.50
2018-06-20T12:59:10.145Z,3.50
2018-06-20T13:01:37.815Z,3.50
2018-06-20T13:04:05.535Z,3.00
2018-06-20T13:06:33.445Z,4.00
2018-06-20T13:09:15.016Z,3.50
2018-06-20T13:11:43.070Z,2.97
2018-06-20T13:14:11.952Z,2.83
2018-06-20T13:16:39.972Z,3.00
2018-06-20T13:19:11.272Z,3.30
2018-06-20T13:21:38.927Z,2.90
2018-06-20T13:24:06.586Z,2.80
2018-06-20T13:26:34.247Z,3.00
2018-06-20T13:29:04.037Z,2.60
2018-06-20T13:31:37.232Z,2.70
2018-06-20T13:34:10.488Z,3.13
2018-06-20T13:36:43.798Z,2.70
2018-06-20T13:39:24.480Z,2.67
2018-06-20T13:41:57.642Z,3.17
2018-06-20T13:44:26.970Z,2.90
2018-06-20T13:47:00.214Z,3.17
2018-06-20T13:49:42.233Z,2.77
2018-06-20T13:52:09.897Z,3.20
2018-06-20T13:54:37.533Z,3.13
2018-06-20T13:57:05.208Z,3.80
2018-06-20T13:59:32.901Z,3.03
2018-06-20T14:02:00.561Z,4.07
2018-06-20T14:04:28.186Z,3.30
2018-06-20T14:06:55.846Z,3.50
2018-06-20T14:09:23.579Z,3.30
2018-06-20T14:11:51.272Z,3.40
2018-06-20T14:14:18.996Z,3.47
2018-06-20T14:16:46.757Z,3.30
2018-06-20T14:19:14.379Z,3.17
2018-06-20T14:21:42.292Z,3.30
2018-06-20T14:24:11.066Z,3.20
2018-06-20T14:26:40.021Z,3.23
2018-06-20T14:29:08.673Z,3.23
2018-06-20T14:31:41.989Z,3.30
2018-06-20T14:34:15.158Z,3.47
2018-06-20T14:36:48.324Z,3.40
2018-06-20T14:39:21.595Z,3.50
2018-06-20T14:41:54.912Z,3.10
2018-06-20T14:44:22.597Z,3.47
2018-06-20T14:46:50.275Z,3.45
2018-06-20T14:49:17.935Z,3.90
2018-06-20T14:51:45.608Z,3.57
2018-06-20T14:54:13.274Z,3.40
2018-06-20T14:56:40.936Z,4.03
2018-06-20T14:59:08.584Z,3.93
2018-06-20T15:01:36.266Z,3.73
2018-06-20T15:04:04.002Z,4.03
2018-06-20T15:06:31.690Z,4.17
2018-06-20T15:08:59.354Z,3.90
2018-06-20T15:11:27.014Z,3.90
2018-06-20T15:13:54.674Z,3.90
2018-06-20T15:16:27.808Z,3.60
2018-06-20T15:18:55.518Z,3.70
2018-06-20T15:21:23.219Z,3.23
2018-06-20T15:23:50.885Z,3.67
2018-06-20T15:26:24.064Z,3.83
2018-06-20T15:28:57.307Z,3.67
2018-06-20T15:31:30.452Z,3.50
2018-06-20T15:34:03.654Z,3.60
2018-06-20T15:36:36.948Z,3.60
2018-06-20T15:39:07.000Z,3.63
2018-06-20T15:41:34.719Z,3.47
2018-06-20T15:44:02.806Z,3.33
2018-06-20T15:46:30.465Z,4.20
2018-06-20T15:48:58.142Z,3.40
2018-06-20T15:51:25.812Z,3.70
2018-06-20T15:53:53.456Z,3.43
2018-06-20T15:56:21.147Z,3.70
2018-06-20T15:58:48.797Z,3.80
2018-06-20T16:01:16.459Z,3.30
2018-06-20T16:03:44.247Z,3.50
2018-06-20T16:06:11.991Z,3.70
2018-06-20T16:10:48.334Z,3.50
2018-06-20T16:13:16.147Z,3.50
2018-06-20T16:15:43.801Z,3.50
2018-06-20T16:18:11.469Z,3.40
2018-06-20T16:20:44.643Z,3.70
2018-06-20T16:23:17.890Z,3.50
2018-06-20T16:25:51.212Z,3.60
2018-06-20T16:28:24.413Z,4.20
2018-06-20T16:30:52.153Z,3.60
2018-06-20T16:33:19.819Z,3.60
2018-06-20T16:35:47.463Z,3.40
2018-06-20T16:38:15.164Z,3.60
2018-06-20T16:40:42.867Z,3.23
2018-06-20T16:43:10.615Z,3.67
2018-06-20T16:45:38.303Z,3.40
2018-06-20T16:48:05.995Z,3.43
2018-06-20T16:50:33.669Z,3.53
2018-06-20T16:53:01.351Z,3.60
2018-06-20T16:55:29.005Z,3.47
2018-06-20T16:57:57.788Z,3.57
2018-06-20T17:00:25.454Z,3.57
2018-06-20T17:02:53.107Z,3.53
2018-06-20T17:05:20.765Z,3.50
2018-06-20T17:07:48.419Z,3.43
2018-06-20T17:10:19.397Z,3.60
2018-06-20T17:12:53.723Z,4.10
2018-06-20T17:15:26.940Z,3.40
2018-06-20T17:20:05.779Z,3.53
2018-06-20T17:22:39.036Z,3.30
2018-06-20T17:25:15.428Z,3.70
2018-06-20T17:27:43.493Z,3.60
2018-06-20T17:30:11.091Z,3.93
2018-06-20T17:32:38.783Z,3.70
2018-06-20T17:35:06.463Z,3.87
2018-06-20T17:37:34.162Z,3.17
2018-06-20T17:40:01.880Z,3.70
2018-06-20T17:42:29.543Z,3.30
2018-06-20T17:44:57.212Z,3.83
2018-06-20T17:47:24.861Z,4.03
2018-06-20T17:49:52.533Z,3.50
2018-06-20T17:52:20.171Z,3.57
2018-06-20T17:54:47.826Z,3.80
2018-06-20T17:57:15.486Z,3.50
2018-06-20T17:59:43.155Z,3.43
2018-06-20T18:02:10.906Z,3.80
2018-06-20T18:04:44.259Z,3.47
2018-06-20T18:09:22.601Z,3.57
2018-06-20T18:11:55.851Z,3.63
2018-06-20T18:14:29.070Z,3.70
2018-06-20T18:16:58.018Z,3.17
2018-06-20T18:19:26.036Z,3.70
2018-06-20T18:21:54.143Z,3.47
2018-06-20T18:24:21.784Z,3.37
2018-06-20T18:26:49.509Z,3.53
2018-06-20T18:29:17.176Z,3.13
2018-06-20T18:31:44.835Z,3.47
2018-06-20T18:34:12.609Z,3.63
2018-06-20T18:36:40.269Z,3.40
2018-06-20T18:39:09.764Z,3.57
2018-06-20T18:41:37.524Z,3.57
2018-06-20T18:44:05.262Z,3.60
2018-06-20T18:46:32.930Z,3.30
2018-06-20T18:49:00.598Z,3.33
2018-06-20T18:51:28.257Z,3.73
2018-06-20T18:53:55.933Z,4.10
2018-06-20T18:56:23.681Z,3.43
2018-06-20T18:58:56.995Z,4.00
2018-06-20T19:01:30.159Z,3.70
2018-06-20T19:04:03.288Z,3.47
2018-06-20T19:06:36.484Z,3.47
2018-06-20T19:09:10.761Z,3.47
2018-06-20T19:11:38.437Z,3.80
2018-06-20T19:14:06.111Z,3.50
2018-06-20T19:16:33.778Z,3.47
2018-06-20T19:19:01.444Z,3.60
2018-06-20T19:21:29.174Z,3.87
2018-06-20T19:23:56.813Z,3.70
2018-06-20T19:26:24.465Z,3.37
2018-06-20T19:28:52.109Z,3.63
2018-06-20T19:31:19.750Z,3.70
2018-06-20T19:33:47.471Z,3.63
2018-06-20T19:36:15.129Z,4.10
2018-06-20T19:38:42.798Z,3.73
2018-06-20T19:41:10.511Z,3.83
2018-06-20T19:43:43.770Z,4.20
2018-06-20T19:46:11.462Z,3.90
2018-06-20T19:48:39.161Z,3.80
2018-06-20T19:51:06.700Z,3.70
2018-06-20T19:53:34.350Z,3.90
2018-06-20T19:56:02.071Z,4.30
2018-06-20T19:58:29.730Z,3.57
2018-06-20T20:00:57.381Z,3.73
2018-06-20T20:03:26.061Z,4.78
2018-06-20T20:05:53.759Z,4.33
2018-06-20T20:08:21.454Z,3.95
2018-06-20T20:10:49.108Z,3.87
2018-06-20T20:13:16.740Z,4.07
2018-06-20T20:15:44.428Z,4.07
2018-06-20T20:18:12.147Z,4.00
2018-06-20T20:20:39.862Z,4.07
2018-06-20T20:23:07.551Z,3.67
2018-06-20T20:25:35.407Z,4.17
2018-06-20T20:28:03.325Z,4.30
2018-06-20T20:30:31.169Z,4.72
2018-06-20T20:32:58.939Z,4.60
2018-06-20T20:35:26.783Z,4.23
2018-06-20T20:37:54.528Z,5.25
2018-06-20T20:40:22.307Z,6.05
2018-06-20T20:42:50.076Z,6.70
2018-06-20T20:45:17.843Z,5.60
2018-06-20T20:47:45.631Z,4.47
2018-06-20T20:50:13.288Z,4.30
2018-06-20T20:52:40.988Z,4.30
2018-06-20T20:55:08.673Z,4.17
2018-06-20T20:57:36.404Z,4.10
2018-06-20T21:00:04.444Z,4.20
2018-06-20T21:02:32.154Z,3.97
2018-06-20T21:04:59.870Z,4.83
2018-06-20T21:07:27.589Z,4.50
2018-06-20T21:09:55.287Z,3.90
2018-06-20T21:12:23.004Z,4.30
2018-06-20T21:14:50.692Z,4.07
2018-06-20T21:17:18.386Z,4.10
2018-06-20T21:19:46.044Z,4.60
2018-06-20T21:22:13.723Z,4.63
2018-06-20T21:24:41.400Z,4.37
2018-06-20T21:27:09.088Z,4.87
2018-06-20T21:29:36.741Z,4.30
2018-06-20T21:32:04.442Z,4.70
2018-06-20T21:34:32.103Z,4.20
2018-06-20T21:36:59.784Z,4.50
2018-06-20T21:39:27.463Z,4.30
2018-06-20T21:41:55.183Z,4.50
2018-06-20T21:44:22.866Z,3.80
2018-06-20T21:46:50.535Z,4.00
2018-06-20T21:49:18.306Z,4.10
2018-06-20T21:51:45.962Z,4.33
2018-06-20T21:54:13.612Z,4.00
2018-06-20T21:56:41.307Z,4.23
2018-06-20T21:59:08.989Z,3.87
2018-06-20T22:01:36.676Z,4.10
2018-06-20T22:04:04.348Z,3.80
2018-06-20T22:06:32.018Z,4.10
2018-06-20T22:08:59.696Z,3.97
2018-06-20T22:11:31.916Z,3.87
2018-06-20T22:13:59.568Z,3.97
2018-06-20T22:16:27.240Z,3.83
2018-06-20T22:18:54.915Z,3.83
2018-06-20T22:21:22.563Z,4.00
2018-06-20T22:23:50.231Z,4.07
2018-06-20T22:26:17.909Z,3.60
2018-06-20T22:28:49.299Z,3.30
2018-06-20T22:31:16.963Z,3.80
2018-06-20T22:33:44.624Z,3.93
2018-06-20T22:36:12.358Z,3.30
2018-06-20T22:38:40.072Z,3.40
2018-06-20T22:41:07.752Z,3.80
2018-06-20T22:43:35.440Z,3.83
2018-06-20T22:46:03.181Z,3.23
2018-06-20T22:48:30.894Z,3.30
2018-06-20T22:50:59.480Z,3.73
2018-06-20T22:53:27.149Z,4.00
2018-06-20T22:55:54.869Z,3.97
2018-06-20T22:58:22.560Z,3.90
2018-06-20T23:00:50.224Z,3.70
2018-06-20T23:03:17.946Z,3.30
2018-06-20T23:05:45.632Z,3.90
2018-06-20T23:08:13.358Z,3.93
2018-06-20T23:10:41.060Z,3.40
2018-06-20T23:13:08.792Z,3.57
2018-06-20T23:15:36.519Z,3.80
2018-06-20T23:18:04.408Z,3.80
2018-06-20T23:20:32.143Z,3.53
2018-06-20T23:22:59.825Z,3.90
2018-06-20T23:25:27.520Z,3.70
2018-06-20T23:27:55.214Z,4.03
2018-06-20T23:30:22.951Z,3.70
2018-06-20T23:32:50.691Z,3.57
2018-06-20T23:35:18.374Z,3.70
2018-06-20T23:37:46.098Z,3.73
2018-06-20T23:40:13.829Z,3.93
2018-06-20T23:42:41.728Z,3.53
2018-06-20T23:45:09.456Z,3.60
2018-06-20T23:47:40.710Z,3.67
2018-06-20T23:50:08.424Z,3.70
2018-06-20T23:52:36.111Z,3.60
2018-06-20T23:55:04.306Z,3.80
2018-06-20T23:57:31.990Z,3.00
2018-06-20T23:59:59.715Z,3.43
